KCYS

Cheyenne Regional / Jerry Olson Field Airport

Cheyenne, Wyoming, USA
METAR KCYS 140353Z 31006KT 10SM CLR 02/M06 A3040 RMK AO2 SLP311 T00171061
Observed Flight Rules
Nov-14 @ 03:53 UTC (an hour ago) Visual Flight Rules
Wind Visibility Clouds
310° at 6 knots 10 miles
  • Clear skies
Temperatures Readings
Current 2°C / 36°F
Dewpoint -6°C / 21°F
Humidity 56%
Altimeter 30.4" Hg
Pressure 1031.1 hPa
Elevation 1868
METAR KCYS 140353Z 31006KT 10SM CLR 02/M06 A3040 RMK AO2 SLP311 T00171061
Observed Flight Rules
Nov-14 @ 03:53 UTC
(an hour ago)
VFR
Wind Visibility
310° at 6 knots 10 miles
Clouds
  • Clear skies
Temperature Dewpoint
2°C / 36°F -6°C / 21°F
Humidity Altimeter Pressure
56% 30.4" Hg 1031.1 hPa